This is the latest recevied weather packets stored in our database for station/object OH2TH. If no packets are shown the sender has not sent any weather packets the latest 10 day(s).
| Time | Temp. | Humidity | Pressure | Rain* | Wind** | Luminosity | Snow |
|---|---|---|---|---|---|---|---|
| 1777786205 | 8.89° C | 76% | 100 hPa | 3.05 mm | - | - | - |
| 1777785304 | 7.78° C | 77% | 100 hPa | 3.05 mm | - | - | - |
| 1777784404 | 7.78° C | 81% | 100 hPa | 3.05 mm | - | - | - |
| 1777783504 | 7.22° C | 83% | 100 hPa | 3.05 mm | - | - | - |
| 1777782603 | 7.22° C | 85% | 100 hPa | 3.05 mm | - | - | - |
| 1777781703 | 6.11° C | 86% | 100 hPa | 3.05 mm | - | - | - |
| 1777780803 | 6.11° C | 86% | 100 hPa | 3.05 mm | - | - | - |
| 1777779902 | 5° C | 89% | 100 hPa | 3.05 mm | - | - | - |
| 1777779002 | 3.89° C | 91% | 100 hPa | 3.05 mm | - | - | - |
| 1777778101 | 3.89° C | 91% | 100 hPa | 3.05 mm | - | - | - |
| 1777777200 | 3.89° C | 90% | 100 hPa | 3.05 mm | - | - | - |
| 1777776304 | 5° C | 90% | 100 hPa | 3.05 mm | - | - | - |
| 1777775403 | 5° C | 89% | 100 hPa | 3.05 mm | - | - | - |
| 1777774502 | 5° C | 89% | 100 hPa | 3.05 mm | - | - | - |
| 1777773602 | 5° C | 89% | 100 hPa | 3.05 mm | - | - | - |
| 1777772701 | 5.56° C | 88% | 100 hPa | 3.05 mm | - | - | - |
| 1777771800 | 5.56° C | 87% | 100 hPa | 3.05 mm | - | - | - |
| 1777770905 | 5.56° C | 86% | 100 hPa | 3.05 mm | - | - | - |
| 1777770004 | 5.56° C | 87% | 100 hPa | 3.05 mm | - | - | - |
| 1777769104 | 6.11° C | 86% | 100 hPa | 3.05 mm | - | - | - |
| 1777768204 | 6.11° C | 84% | 100 hPa | 3.05 mm | - | - | - |
| 1777767303 | 6.11° C | 83% | 100 hPa | 3.05 mm | - | - | - |
| 1777766403 | 6.11° C | 83% | 100 hPa | 3.05 mm | - | - | - |
| 1777765503 | 6.67° C | 82% | 100 hPa | 3.05 mm | - | - | - |
| 1777764602 | 6.67° C | 80% | 101 hPa | 3.05 mm | - | - | - |
* Rain latest 24 hours (hover to see other rain measurements)
** Current wind speed in m/s (hover to see current wind gust speed)